createdAt,value
2022-08-10T00:00:59.698Z,23.26
2022-08-10T00:03:27.807Z,23.27
2022-08-10T00:05:57.370Z,23.29
2022-08-10T00:08:26.279Z,23.29
2022-08-10T00:10:54.639Z,23.29
2022-08-10T00:13:22.930Z,23.27
2022-08-10T00:15:53.755Z,23.24
2022-08-10T00:18:34.431Z,23.22
2022-08-10T00:21:07.424Z,23.16
2022-08-10T00:23:35.581Z,23.09
2022-08-10T00:26:06.050Z,23.05
2022-08-10T00:28:34.119Z,23.04
2022-08-10T00:31:02.503Z,23.03
2022-08-10T00:33:30.782Z,22.98
2022-08-10T00:35:58.853Z,22.93
2022-08-10T00:38:28.384Z,22.87
2022-08-10T00:40:56.580Z,22.82
2022-08-10T00:43:25.287Z,22.78
2022-08-10T00:45:59.428Z,22.71
2022-08-10T00:48:29.624Z,22.61
2022-08-10T00:50:58.341Z,22.55
2022-08-10T00:53:28.237Z,22.53
2022-08-10T00:57:14.300Z,22.53
2022-08-10T00:58:44.471Z,22.54
2022-08-10T01:02:10.097Z,22.54
2022-08-10T01:04:58.805Z,22.53
2022-08-10T01:06:55.210Z,22.49
2022-08-10T01:09:28.745Z,22.50
2022-08-10T01:12:41.022Z,22.50
2022-08-10T01:14:50.353Z,22.48
2022-08-10T01:17:22.061Z,22.45
2022-08-10T01:19:57.555Z,22.44
2022-08-10T01:22:38.130Z,22.42
2022-08-10T01:27:55.064Z,22.25
2022-08-10T01:30:24.588Z,22.24
2022-08-10T01:32:56.535Z,22.25
2022-08-10T01:35:27.859Z,22.25
2022-08-10T01:38:00.986Z,22.29
2022-08-10T01:40:29.307Z,22.32
2022-08-10T01:43:07.974Z,22.31
2022-08-10T01:45:44.706Z,22.29
2022-08-10T01:48:30.782Z,22.29
2022-08-10T01:51:04.527Z,22.27
2022-08-10T01:53:40.054Z,22.24
2022-08-10T01:56:09.252Z,22.19
2022-08-10T01:58:37.418Z,22.14
2022-08-10T02:01:07.139Z,22.09
2022-08-10T02:03:35.538Z,22.08
2022-08-10T02:06:23.822Z,22.08
2022-08-10T02:09:04.998Z,22.06
2022-08-10T02:12:06.317Z,22.02
2022-08-10T02:14:23.159Z,21.99
2022-08-10T02:16:52.722Z,21.97
2022-08-10T02:19:21.751Z,21.96
2022-08-10T02:22:45.927Z,21.95
2022-08-10T02:24:43.271Z,21.94
2022-08-10T02:27:11.360Z,21.92
2022-08-10T02:29:42.369Z,21.87
2022-08-10T02:32:12.325Z,21.82
2022-08-10T02:34:49.491Z,21.78
2022-08-10T02:37:17.551Z,21.76
2022-08-10T02:39:45.974Z,21.77
2022-08-10T02:45:19.060Z,21.77
2022-08-10T02:45:26.983Z,21.77
2022-08-10T02:47:59.990Z,21.78
2022-08-10T02:50:29.281Z,21.77
2022-08-10T02:53:01.601Z,21.74
2022-08-10T02:55:33.236Z,21.75
2022-08-10T02:58:15.369Z,21.70
2022-08-10T03:00:47.515Z,21.68
2022-08-10T03:03:20.490Z,21.65
2022-08-10T03:05:49.942Z,21.66
2022-08-10T03:08:19.817Z,21.67
2022-08-10T03:10:47.893Z,21.70
2022-08-10T03:13:15.960Z,21.69
2022-08-10T03:15:44.077Z,21.71
2022-08-10T03:18:12.140Z,21.73
2022-08-10T03:20:42.731Z,21.69
2022-08-10T03:23:12.479Z,21.74
2022-08-10T03:25:40.647Z,21.78
2022-08-10T03:28:08.725Z,21.78
2022-08-10T03:30:36.961Z,21.76
2022-08-10T03:33:05.893Z,21.72
2022-08-10T03:35:34.001Z,21.66
2022-08-10T03:38:03.565Z,21.59
2022-08-10T03:40:45.465Z,21.52
2022-08-10T03:43:16.199Z,21.44
2022-08-10T03:45:55.005Z,21.41
2022-08-10T03:48:32.447Z,21.42
2022-08-10T03:51:13.086Z,21.45
2022-08-10T03:54:05.589Z,21.47
2022-08-10T03:56:32.367Z,21.43
2022-08-10T03:59:01.177Z,21.40
2022-08-10T04:02:43.757Z,21.35
2022-08-10T04:04:22.932Z,21.32
2022-08-10T04:06:54.662Z,21.30
2022-08-10T04:09:29.670Z,21.24
2022-08-10T04:12:11.741Z,21.16
2022-08-10T04:14:50.867Z,21.12
2022-08-10T04:17:59.446Z,21.07
2022-08-10T04:20:14.907Z,21.01
2022-08-10T04:22:43.031Z,21.03
2022-08-10T04:25:12.537Z,21.00
2022-08-10T04:27:40.681Z,20.95
2022-08-10T04:30:09.911Z,20.90
2022-08-10T04:32:38.035Z,20.86
2022-08-10T04:35:06.638Z,20.83
2022-08-10T04:37:34.754Z,20.79
2022-08-10T04:40:02.911Z,20.73
2022-08-10T04:42:32.606Z,20.69
2022-08-10T04:45:01.052Z,20.69
2022-08-10T04:47:57.455Z,20.72
2022-08-10T04:50:17.252Z,20.71
2022-08-10T04:52:52.518Z,20.70
2022-08-10T04:55:20.833Z,20.67
2022-08-10T04:57:50.299Z,20.63
2022-08-10T05:00:19.327Z,20.59
2022-08-10T05:02:47.700Z,20.55
2022-08-10T05:05:15.763Z,20.53
2022-08-10T05:07:53.823Z,20.51
2022-08-10T05:10:25.025Z,20.48
2022-08-10T05:12:54.454Z,20.43
2022-08-10T05:15:24.428Z,20.40
2022-08-10T05:18:04.533Z,20.39
2022-08-10T05:20:37.890Z,20.40
2022-08-10T05:23:05.958Z,20.40
2022-08-10T05:25:37.395Z,20.39
2022-08-10T05:28:07.698Z,20.37
2022-08-10T05:30:35.785Z,20.37
2022-08-10T05:33:08.574Z,20.35
2022-08-10T05:35:57.376Z,20.34
2022-08-10T05:38:27.431Z,20.39
2022-08-10T05:40:55.813Z,20.43
2022-08-10T05:43:25.325Z,20.48
2022-08-10T05:46:19.076Z,20.49
2022-08-10T05:48:58.615Z,20.54
2022-08-10T05:51:29.130Z,20.60
2022-08-10T05:54:02.075Z,20.64
2022-08-10T05:56:56.894Z,20.70
2022-08-10T06:00:34.770Z,20.72
2022-08-10T06:02:33.232Z,20.76
2022-08-10T06:05:06.764Z,20.72
2022-08-10T06:07:37.822Z,20.76
2022-08-10T06:10:10.107Z,20.80
2022-08-10T06:12:55.465Z,20.86
2022-08-10T06:15:50.937Z,20.91
2022-08-10T06:18:15.434Z,20.98
2022-08-10T06:20:43.778Z,21.05
2022-08-10T06:23:11.888Z,21.17
2022-08-10T06:26:12.166Z,21.29
2022-08-10T06:28:29.642Z,21.45
2022-08-10T06:30:59.159Z,21.60
2022-08-10T06:33:28.008Z,21.74
2022-08-10T06:35:56.709Z,21.86
2022-08-10T06:38:25.147Z,21.99
2022-08-10T06:40:54.193Z,22.10
2022-08-10T06:43:22.535Z,22.18
2022-08-10T06:46:08.016Z,22.26
2022-08-10T06:48:41.685Z,22.34
2022-08-10T06:51:14.664Z,22.44
2022-08-10T06:53:53.175Z,22.54
2022-08-10T06:56:35.806Z,22.64
2022-08-10T06:59:13.260Z,22.73
2022-08-10T07:01:51.791Z,22.85
2022-08-10T07:04:32.921Z,22.93
2022-08-10T07:07:03.271Z,23.04
2022-08-10T07:09:31.569Z,23.14
2022-08-10T07:12:07.528Z,23.24
2022-08-10T07:14:38.557Z,23.32
2022-08-10T07:17:15.691Z,23.45
2022-08-10T07:19:49.647Z,23.53
2022-08-10T07:23:08.361Z,23.65
2022-08-10T07:25:07.905Z,23.76
2022-08-10T07:27:58.361Z,23.86
2022-08-10T07:30:24.073Z,24.00
2022-08-10T07:32:52.460Z,24.10
2022-08-10T07:35:23.060Z,24.23
2022-08-10T07:37:52.294Z,24.37
2022-08-10T07:40:21.802Z,24.48
2022-08-10T07:42:54.972Z,24.60
2022-08-10T07:45:24.350Z,24.66
2022-08-10T07:47:56.897Z,24.71
2022-08-10T07:50:26.821Z,24.80
2022-08-10T07:52:57.081Z,24.93
2022-08-10T07:56:01.798Z,25.07
2022-08-10T07:58:13.271Z,25.22
2022-08-10T08:00:41.309Z,25.32
2022-08-10T08:03:10.809Z,25.44
2022-08-10T08:05:58.906Z,25.56
2022-08-10T08:08:39.961Z,25.68
2022-08-10T08:11:08.738Z,25.80
2022-08-10T08:13:38.201Z,25.93
2022-08-10T08:16:20.481Z,26.04
2022-08-10T08:19:23.956Z,26.21
2022-08-10T08:24:14.787Z,26.34
2022-08-10T08:24:34.216Z,26.47
2022-08-10T08:27:03.269Z,26.59
2022-08-10T08:29:32.648Z,26.73
2022-08-10T08:32:03.632Z,26.87
2022-08-10T08:34:33.227Z,26.99
2022-08-10T08:37:03.042Z,27.13
2022-08-10T08:39:34.720Z,27.28
2022-08-10T08:42:16.069Z,27.42
2022-08-10T08:44:51.892Z,27.61
2022-08-10T08:48:03.352Z,27.78
2022-08-10T08:50:26.677Z,28.05
2022-08-10T08:53:00.728Z,28.25
2022-08-10T08:56:04.230Z,28.48
2022-08-10T08:58:31.952Z,28.70
2022-08-10T09:01:05.262Z,28.87
2022-08-10T09:03:48.751Z,28.98
2022-08-10T09:06:29.817Z,29.12
2022-08-10T09:09:29.075Z,29.24
2022-08-10T09:12:07.422Z,29.34
2022-08-10T09:14:39.318Z,29.45
2022-08-10T09:17:20.407Z,29.54
2022-08-10T09:19:51.135Z,29.60
2022-08-10T09:22:26.091Z,29.64
2022-08-10T09:25:01.820Z,29.71
2022-08-10T09:27:37.736Z,29.76
2022-08-10T09:30:07.914Z,29.87
2022-08-10T09:36:14.639Z,30.03
2022-08-10T09:36:23.869Z,30.20
2022-08-10T09:38:37.345Z,30.32
2022-08-10T09:41:15.192Z,30.42
2022-08-10T09:43:48.480Z,30.53
2022-08-10T09:46:27.655Z,30.63
2022-08-10T09:49:02.193Z,30.74
2022-08-10T09:51:45.453Z,30.86
2022-08-10T09:54:28.448Z,31.01
2022-08-10T09:57:41.254Z,31.13
2022-08-10T10:00:01.729Z,31.27
2022-08-10T10:02:59.070Z,31.42
2022-08-10T10:05:33.900Z,31.56
2022-08-10T10:08:10.995Z,31.68
2022-08-10T10:10:47.691Z,31.83
2022-08-10T10:14:01.587Z,31.90
2022-08-10T10:16:35.228Z,32.05
2022-08-10T10:19:17.807Z,32.17
2022-08-10T10:21:54.133Z,32.30
2022-08-10T10:24:30.287Z,32.44
2022-08-10T10:27:02.609Z,32.57
2022-08-10T10:29:58.140Z,32.68
2022-08-10T10:32:37.034Z,32.83
2022-08-10T10:35:11.358Z,33.00
2022-08-10T10:38:02.235Z,33.19
2022-08-10T10:40:36.783Z,33.36
2022-08-10T10:43:09.218Z,33.53
2022-08-10T10:45:50.337Z,33.75
2022-08-10T10:48:24.083Z,33.93
2022-08-10T10:51:04.912Z,34.11
2022-08-10T10:53:47.109Z,34.24
2022-08-10T10:56:19.483Z,34.26
2022-08-10T10:58:53.739Z,34.44
2022-08-10T11:01:27.225Z,34.51
2022-08-10T11:04:08.159Z,34.64
2022-08-10T11:06:45.705Z,34.75
2022-08-10T11:10:08.612Z,34.81
2022-08-10T11:12:20.141Z,34.87
2022-08-10T11:15:00.326Z,34.91
2022-08-10T11:17:32.707Z,35.02
2022-08-10T11:20:08.733Z,35.13
2022-08-10T11:22:40.375Z,35.10
2022-08-10T11:25:15.982Z,35.17
2022-08-10T11:27:49.235Z,35.24
2022-08-10T11:30:22.509Z,35.33
2022-08-10T11:33:05.453Z,35.42
2022-08-10T11:35:38.528Z,35.47
2022-08-10T11:38:30.317Z,35.55
2022-08-10T11:42:09.928Z,35.67
2022-08-10T11:44:11.603Z,35.92
2022-08-10T11:46:42.751Z,36.12
2022-08-10T11:49:16.330Z,36.30
2022-08-10T11:51:47.314Z,36.50
2022-08-10T11:54:21.116Z,36.60
2022-08-10T11:56:51.988Z,36.76
2022-08-10T11:59:40.729Z,36.83
2022-08-10T12:02:09.722Z,36.99
2022-08-10T12:04:41.275Z,37.18
2022-08-10T12:10:02.499Z,37.39
2022-08-10T12:10:10.780Z,37.57
2022-08-10T12:12:44.405Z,37.58
2022-08-10T12:15:20.488Z,37.62
2022-08-10T12:17:54.030Z,37.80
2022-08-10T12:20:27.771Z,38.05
2022-08-10T12:22:59.479Z,38.31
2022-08-10T12:25:57.107Z,38.50
2022-08-10T12:28:33.279Z,38.66
2022-08-10T12:31:15.439Z,38.81
2022-08-10T12:34:01.273Z,38.88
2022-08-10T12:36:39.822Z,38.93
2022-08-10T12:39:09.419Z,39.02
2022-08-10T12:41:44.267Z,39.13
2022-08-10T12:44:16.011Z,39.20
2022-08-10T12:46:50.783Z,39.43
2022-08-10T12:49:21.235Z,39.53
2022-08-10T12:51:57.352Z,39.54
2022-08-10T12:54:32.992Z,39.53
2022-08-10T12:57:03.465Z,39.79
2022-08-10T12:59:43.854Z,39.98
2022-08-10T13:02:14.868Z,40.12
2022-08-10T13:04:45.771Z,40.22
2022-08-10T13:08:07.289Z,40.39
2022-08-10T13:10:13.360Z,40.68
2022-08-10T13:12:46.988Z,40.92
2022-08-10T13:15:45.823Z,40.87
2022-08-10T13:18:18.174Z,40.82
2022-08-10T13:20:52.094Z,40.87
2022-08-10T13:23:31.726Z,41.04
2022-08-10T13:26:03.957Z,41.24
2022-08-10T13:28:39.969Z,41.42
2022-08-10T13:31:16.845Z,41.36
2022-08-10T13:34:41.045Z,41.39
2022-08-10T13:36:39.768Z,41.46
2022-08-10T13:39:11.980Z,41.63
2022-08-10T13:41:48.767Z,41.79
2022-08-10T13:44:28.367Z,41.99
2022-08-10T13:46:58.352Z,42.22
2022-08-10T13:49:27.952Z,42.22
2022-08-10T13:51:58.369Z,42.18
2022-08-10T13:54:31.286Z,42.17
2022-08-10T13:56:59.416Z,42.10
2022-08-10T14:00:34.291Z,41.96
2022-08-10T14:02:23.684Z,41.83
2022-08-10T14:04:56.966Z,41.61
2022-08-10T14:07:28.128Z,41.64
2022-08-10T14:10:07.432Z,41.74
2022-08-10T14:12:37.168Z,41.79
2022-08-10T14:15:06.660Z,41.77
2022-08-10T14:17:34.939Z,41.68
2022-08-10T14:20:03.559Z,41.72
2022-08-10T14:22:33.709Z,41.99
2022-08-10T14:25:10.793Z,42.29
2022-08-10T14:28:03.226Z,42.22
2022-08-10T14:30:30.862Z,42.19
2022-08-10T14:33:00.422Z,42.18
2022-08-10T14:36:19.053Z,42.29
2022-08-10T14:38:19.271Z,42.56
2022-08-10T14:40:52.557Z,42.82
2022-08-10T14:43:28.538Z,43.14
2022-08-10T14:46:01.410Z,42.95
2022-08-10T14:48:33.286Z,42.81
2022-08-10T14:51:02.864Z,42.68
2022-08-10T14:53:34.673Z,42.66
2022-08-10T14:56:07.634Z,42.47
2022-08-10T14:58:38.413Z,42.26
2022-08-10T15:01:07.969Z,42.09
2022-08-10T15:03:59.444Z,41.97
2022-08-10T15:06:30.821Z,42.13
2022-08-10T15:09:12.193Z,42.39
2022-08-10T15:12:13.008Z,42.65
2022-08-10T15:14:42.422Z,42.72
2022-08-10T15:17:13.473Z,42.92
2022-08-10T15:20:02.280Z,43.06
2022-08-10T15:22:50.311Z,43.22
2022-08-10T15:25:24.657Z,43.19
2022-08-10T15:28:04.897Z,43.21
2022-08-10T15:30:39.771Z,43.36
2022-08-10T15:34:03.864Z,43.33
2022-08-10T15:36:34.650Z,43.34
2022-08-10T15:39:04.971Z,43.30
2022-08-10T15:41:57.750Z,43.27
2022-08-10T15:44:36.972Z,43.32
2022-08-10T15:47:07.436Z,43.43
2022-08-10T15:49:41.082Z,43.67
2022-08-10T15:52:39.284Z,43.72
2022-08-10T15:55:43.257Z,43.68
2022-08-10T15:58:01.155Z,43.53
2022-08-10T16:00:31.427Z,43.58
2022-08-10T16:03:01.994Z,43.63
2022-08-10T16:06:01.090Z,43.64
2022-08-10T16:08:55.827Z,43.48
2022-08-10T16:11:27.980Z,43.39
2022-08-10T16:14:16.366Z,43.58
2022-08-10T16:16:49.753Z,43.95
2022-08-10T16:19:24.072Z,44.19
2022-08-10T16:21:58.205Z,44.30
2022-08-10T16:24:27.562Z,44.31
2022-08-10T16:26:55.706Z,44.18
2022-08-10T16:29:25.357Z,44.16
2022-08-10T16:31:59.786Z,44.13
2022-08-10T16:34:29.797Z,44.10
2022-08-10T16:36:59.147Z,44.17
2022-08-10T16:39:58.864Z,44.21
2022-08-10T16:42:19.765Z,44.32
2022-08-10T16:44:52.770Z,44.43
2022-08-10T16:47:27.321Z,44.38
2022-08-10T16:49:56.718Z,44.25
2022-08-10T16:52:25.989Z,44.17
2022-08-10T16:54:58.622Z,44.07
2022-08-10T16:57:29.873Z,43.97
2022-08-10T16:59:58.160Z,43.88
2022-08-10T17:02:27.630Z,43.91
2022-08-10T17:04:56.588Z,43.84
2022-08-10T17:07:30.719Z,43.70
2022-08-10T17:09:59.054Z,43.34
2022-08-10T17:12:28.575Z,42.97
2022-08-10T17:15:09.426Z,42.70
2022-08-10T17:17:42.509Z,42.46
2022-08-10T17:20:30.841Z,42.33
2022-08-10T17:23:03.707Z,42.16
2022-08-10T17:25:48.520Z,41.96
2022-08-10T17:28:34.825Z,41.80
2022-08-10T17:31:23.610Z,41.64
2022-08-10T17:33:55.489Z,41.47
2022-08-10T17:36:24.142Z,41.22
2022-08-10T17:38:52.423Z,40.92
2022-08-10T17:41:23.760Z,40.68
2022-08-10T17:44:01.662Z,40.43
2022-08-10T17:46:32.969Z,40.29
2022-08-10T17:49:07.379Z,40.14
2022-08-10T17:51:35.551Z,39.89
2022-08-10T17:54:08.873Z,39.74
2022-08-10T17:56:37.638Z,39.58
2022-08-10T17:59:17.027Z,39.42
2022-08-10T18:01:58.967Z,39.31
2022-08-10T18:04:41.727Z,39.20
2022-08-10T18:07:11.053Z,39.11
2022-08-10T18:09:41.215Z,38.85
2022-08-10T18:12:15.792Z,38.58
2022-08-10T18:14:48.036Z,38.27
2022-08-10T18:17:18.325Z,38.07
2022-08-10T18:19:49.372Z,37.89
2022-08-10T18:22:17.724Z,37.69
2022-08-10T18:24:45.913Z,37.47
2022-08-10T18:27:14.573Z,37.20
2022-08-10T18:29:43.820Z,37.01
2022-08-10T18:32:12.522Z,36.84
2022-08-10T18:34:40.648Z,36.50
2022-08-10T18:37:10.850Z,36.09
2022-08-10T18:39:40.478Z,35.74
2022-08-10T18:42:11.499Z,35.40
2022-08-10T18:44:42.442Z,35.07
2022-08-10T18:47:15.771Z,34.76
2022-08-10T18:49:52.965Z,34.44
2022-08-10T18:52:22.569Z,34.13
2022-08-10T18:54:51.541Z,33.85
2022-08-10T18:57:28.237Z,33.53
2022-08-10T19:00:14.755Z,33.25
2022-08-10T19:02:51.727Z,32.96
2022-08-10T19:05:33.910Z,32.72
2022-08-10T19:08:35.429Z,32.48
2022-08-10T19:11:06.812Z,32.22
2022-08-10T19:13:38.181Z,32.03
2022-08-10T19:16:16.167Z,31.82
2022-08-10T19:18:55.002Z,31.62
2022-08-10T19:21:28.585Z,31.41
2022-08-10T19:24:02.831Z,31.27
2022-08-10T19:26:47.100Z,31.21
2022-08-10T19:30:11.077Z,31.07
2022-08-10T19:32:19.181Z,30.92
2022-08-10T19:34:59.862Z,30.78
2022-08-10T19:37:36.938Z,30.64
2022-08-10T19:40:13.713Z,30.56
2022-08-10T19:42:48.036Z,30.43
2022-08-10T19:45:56.243Z,30.33
2022-08-10T19:48:13.008Z,30.22
2022-08-10T19:50:45.698Z,30.18
2022-08-10T19:53:19.825Z,30.10
2022-08-10T19:56:01.903Z,29.96
2022-08-10T19:58:47.262Z,29.87
2022-08-10T20:01:15.595Z,29.80
2022-08-10T20:03:47.195Z,29.76
2022-08-10T20:06:20.543Z,29.78
2022-08-10T20:08:54.104Z,29.79
2022-08-10T20:11:45.560Z,29.81
2022-08-10T20:14:22.185Z,29.74
2022-08-10T20:16:51.525Z,29.71
2022-08-10T20:19:24.616Z,29.66
2022-08-10T20:22:12.834Z,29.61
2022-08-10T20:24:46.298Z,29.58
2022-08-10T20:27:59.267Z,29.59
2022-08-10T20:30:10.392Z,29.61
2022-08-10T20:32:50.264Z,29.66
2022-08-10T20:35:24.143Z,29.69
2022-08-10T20:38:03.415Z,29.73
2022-08-10T20:40:35.766Z,29.77
2022-08-10T20:43:08.918Z,29.73
2022-08-10T20:46:07.107Z,29.78
2022-08-10T20:48:36.007Z,29.83
2022-08-10T20:51:06.762Z,29.81
2022-08-10T20:53:35.684Z,29.82
2022-08-10T20:56:09.339Z,29.77
2022-08-10T20:59:09.122Z,29.70
2022-08-10T21:02:11.998Z,29.52
2022-08-10T21:04:44.648Z,29.37
2022-08-10T21:07:44.124Z,29.22
2022-08-10T21:10:18.080Z,29.06
2022-08-10T21:12:52.222Z,28.93
2022-08-10T21:15:41.812Z,28.80
2022-08-10T21:18:22.806Z,28.65
2022-08-10T21:20:59.571Z,28.49
2022-08-10T21:23:30.362Z,28.40
2022-08-10T21:26:08.075Z,28.32
2022-08-10T21:28:49.913Z,28.26
2022-08-10T21:31:28.671Z,28.17
2022-08-10T21:34:32.245Z,28.07
2022-08-10T21:37:01.824Z,27.95
2022-08-10T21:39:44.440Z,27.84
2022-08-10T21:42:36.448Z,27.76
2022-08-10T21:45:54.906Z,27.67
2022-08-10T21:48:37.154Z,27.56
2022-08-10T21:52:01.126Z,27.45
2022-08-10T21:54:36.162Z,27.35
2022-08-10T21:57:30.135Z,27.30
2022-08-10T22:00:30.523Z,27.20
2022-08-10T22:03:17.782Z,27.14
2022-08-10T22:06:07.192Z,27.02
2022-08-10T22:08:57.913Z,26.86
2022-08-10T22:11:44.665Z,26.75
2022-08-10T22:18:10.104Z,26.60
2022-08-10T22:20:43.566Z,26.55
2022-08-10T22:23:36.962Z,26.48
2022-08-10T22:26:28.569Z,26.40
2022-08-10T22:29:16.347Z,26.30
2022-08-10T22:31:27.040Z,26.65
2022-08-10T22:32:09.433Z,26.19
2022-08-10T22:35:04.336Z,26.08
2022-08-10T22:37:57.820Z,25.99
2022-08-10T22:40:43.355Z,25.96
2022-08-10T22:43:46.917Z,25.94
2022-08-10T22:46:34.099Z,25.95
2022-08-10T22:49:01.523Z,25.95
2022-08-10T22:51:41.790Z,25.93
2022-08-10T22:54:33.775Z,25.88
2022-08-10T22:57:19.850Z,25.85
2022-08-10T22:59:49.656Z,25.83
2022-08-10T23:02:26.680Z,25.82
2022-08-10T23:04:57.888Z,25.77
2022-08-10T23:07:27.664Z,25.72
2022-08-10T23:09:58.926Z,25.70
2022-08-10T23:12:30.890Z,25.67
2022-08-10T23:15:19.367Z,25.69
2022-08-10T23:18:09.308Z,25.64
2022-08-10T23:20:38.057Z,25.57
2022-08-10T23:23:09.745Z,25.50
2022-08-10T23:25:43.755Z,25.41
2022-08-10T23:28:38.912Z,25.36
2022-08-10T23:41:09.819Z,24.92
2022-08-10T23:44:02.936Z,24.92
2022-08-10T23:46:29.247Z,24.88
2022-08-10T23:48:59.312Z,24.84
2022-08-10T23:51:38.688Z,24.80
2022-08-10T23:54:23.242Z,24.74
2022-08-10T23:56:53.636Z,24.69
2022-08-10T23:59:23.672Z,24.67
